Time;durP1;ratioP1;P1;durP2;ratioP2;P2;SDS_P1;SDS_P2;PMS_P1;PMS_P2;Temp;Humidity;BMP_temperature;BMP_pressure;BME280_temperature;BME280_humidity;BME280_pressure;Samples;Min_cycle;Max_cycle;Signal;HPM_P1;HPM_P2
2022/01/27 00:07:32;;;;;;;63.70;37.25;;;4.10;99.90;;;;;;4956231;29;20408;-79
2022/01/27 00:10:24;;;;;;;64.90;37.58;;;4.00;99.90;;;;;;5036113;28;20741;-81
2022/01/27 00:12:46;;;;;;;65.65;37.13;;;4.10;99.90;;;;;;4974593;28;20422;-80
2022/01/27 00:15:14;;;;;;;62.33;37.13;;;4.10;99.90;;;;;;5040561;28;20393;-80
2022/01/27 00:17:48;;;;;;;67.40;39.00;;;4.10;99.90;;;;;;4972007;28;20403;-80
2022/01/27 00:20:14;;;;;;;64.93;38.13;;;4.10;99.90;;;;;;5035433;28;20417;-81
2022/01/27 00:22:42;;;;;;;67.18;38.83;;;4.10;99.90;;;;;;4972167;28;20408;-81
2022/01/27 00:25:08;;;;;;;64.57;38.78;;;4.10;99.90;;;;;;5056711;28;20425;-80
2022/01/27 00:27:34;;;;;;;67.87;40.13;;;4.00;99.90;;;;;;5055508;28;20406;-80
2022/01/27 00:30:03;;;;;;;66.65;39.80;;;4.00;99.90;;;;;;4972512;28;20395;-80
2022/01/27 00:32:30;;;;;;;71.30;39.83;;;4.00;99.90;;;;;;5039719;28;20437;-80
2022/01/27 00:34:56;;;;;;;65.57;39.35;;;4.00;99.90;;;;;;4972633;28;20395;-81
2022/01/27 00:37:22;;;;;;;67.68;40.17;;;4.00;99.90;;;;;;5037541;28;20452;-80
2022/01/27 00:39:47;;;;;;;68.35;39.67;;;4.00;99.90;;;;;;4971217;28;20399;-81
2022/01/27 00:42:13;;;;;;;67.18;39.65;;;4.10;99.90;;;;;;5038710;28;20452;-79
2022/01/27 00:44:39;;;;;;;65.13;38.73;;;4.00;99.90;;;;;;4973672;28;20417;-80
2022/01/27 00:47:05;;;;;;;65.23;39.17;;;4.00;99.90;;;;;;4972620;28;20390;-80
2022/01/27 00:49:31;;;;;;;64.65;39.58;;;4.00;99.90;;;;;;4970613;28;20475;-80
2022/01/27 00:51:57;;;;;;;63.53;37.92;;;4.00;99.90;;;;;;5038847;28;20441;-80
2022/01/27 00:54:27;;;;;;;63.88;38.70;;;4.00;99.90;;;;;;5039249;28;20429;-80
2022/01/27 00:57:05;;;;;;;63.65;37.75;;;4.00;99.90;;;;;;5038484;28;20532;-80
2022/01/27 00:59:39;;;;;;;67.22;38.53;;;4.00;99.90;;;;;;5038409;28;20399;-80
2022/01/27 01:04:40;;;;;;;68.60;38.97;;;3.90;99.90;;;;;;4971376;28;20912;-80
2022/01/27 01:07:07;;;;;;;64.93;37.97;;;3.90;99.90;;;;;;4972078;28;20398;-81
2022/01/27 01:15:22;;;;;;;65.32;38.35;;;3.80;99.90;;;;;;5004607;28;20515;-81
2022/01/27 01:18:04;;;;;;;61.88;37.13;;;3.80;99.90;;;;;;5018556;28;20393;-80
2022/01/27 01:20:58;;;;;;;60.42;36.50;;;4.00;99.90;;;;;;5018650;28;20400;-81
2022/01/27 01:32:06;;;;;;;56.63;33.70;;;4.00;99.90;;;;;;4970867;28;20452;-80
2022/01/27 01:34:32;;;;;;;55.97;34.35;;;4.10;99.90;;;;;;5036018;28;20794;-81
2022/01/27 01:37:04;;;;;;;56.20;33.63;;;4.00;99.90;;;;;;5035157;28;20387;-80
2022/01/27 01:39:33;;;;;;;53.42;32.75;;;4.00;99.90;;;;;;5038387;28;20513;-81
2022/01/27 01:41:59;;;;;;;54.25;33.22;;;4.00;99.90;;;;;;4969979;28;20516;-80
2022/01/27 01:44:26;;;;;;;51.38;33.20;;;4.00;99.90;;;;;;4973658;28;20443;-81
2022/01/27 01:46:53;;;;;;;54.17;33.08;;;4.00;99.90;;;;;;4973560;28;20461;-80
2022/01/27 01:49:22;;;;;;;54.17;33.33;;;4.00;99.90;;;;;;5039354;28;20411;-81
2022/01/27 01:51:48;;;;;;;50.73;32.20;;;4.00;99.90;;;;;;4973246;28;20462;-80
2022/01/27 01:54:14;;;;;;;50.55;33.13;;;4.00;99.90;;;;;;4973265;28;20425;-80
2022/01/27 01:56:42;;;;;;;50.03;32.67;;;4.00;99.90;;;;;;4973079;28;20415;-81
2022/01/27 01:59:08;;;;;;;50.38;33.03;;;4.00;99.90;;;;;;4972967;28;21182;-82
2022/01/27 02:01:35;;;;;;;51.50;32.97;;;4.00;99.90;;;;;;5038050;28;20421;-81
2022/01/27 02:04:05;;;;;;;48.03;32.17;;;4.00;99.90;;;;;;4971204;28;20403;-83
2022/01/27 02:06:37;;;;;;;50.95;32.53;;;4.00;99.90;;;;;;5038666;28;21099;-82
2022/01/27 02:19:58;;;;;;;46.15;30.80;;;4.10;99.90;;;;;;4970310;28;20413;-80
2022/01/27 02:22:24;;;;;;;49.25;32.47;;;4.10;99.90;;;;;;4969017;28;20394;-81
2022/01/27 02:24:53;;;;;;;50.60;33.38;;;4.10;99.90;;;;;;5037527;28;20399;-81
2022/01/27 02:27:20;;;;;;;43.70;31.15;;;4.10;99.90;;;;;;4971699;28;20401;-81
2022/01/27 02:29:46;;;;;;;46.88;32.45;;;4.10;99.90;;;;;;4972137;28;20757;-81
2022/01/27 02:32:14;;;;;;;45.13;31.40;;;4.10;99.90;;;;;;4972153;28;20568;-81
2022/01/27 02:34:41;;;;;;;42.57;30.87;;;4.00;99.90;;;;;;4969127;28;20420;-81
2022/01/27 02:37:08;;;;;;;44.03;31.40;;;4.20;99.90;;;;;;4967957;28;20448;-80
2022/01/27 02:39:33;;;;;;;46.70;30.48;;;4.10;99.90;;;;;;4968866;28;20422;-81
2022/01/27 02:42:24;;;;;;;43.10;32.05;;;4.20;99.90;;;;;;4969912;28;20813;-80
2022/01/27 02:45:02;;;;;;;43.88;31.30;;;4.20;99.90;;;;;;4972077;28;20379;-81
2022/01/27 02:47:28;;;;;;;43.28;30.42;;;4.20;99.90;;;;;;4971522;28;20967;-81
2022/01/27 02:49:54;;;;;;;44.72;32.33;;;4.20;99.90;;;;;;4972017;28;20497;-80
2022/01/27 02:52:19;;;;;;;41.13;30.60;;;4.20;99.90;;;;;;4970923;28;20491;-81
2022/01/27 02:54:45;;;;;;;44.42;32.42;;;4.30;99.90;;;;;;4971077;28;20383;-81
2022/01/27 02:57:11;;;;;;;44.67;32.47;;;4.30;99.90;;;;;;4971545;28;20797;-82
2022/01/27 02:59:37;;;;;;;45.25;31.27;;;4.30;99.90;;;;;;4972077;28;20402;-81
2022/01/27 03:02:03;;;;;;;44.33;31.48;;;4.30;99.90;;;;;;4971541;28;20411;-81
2022/01/27 03:04:30;;;;;;;42.20;31.40;;;4.30;99.90;;;;;;4971547;28;20382;-81
2022/01/27 03:06:56;;;;;;;42.42;31.63;;;4.20;99.90;;;;;;5038729;28;20406;-81
2022/01/27 03:09:22;;;;;;;39.88;29.90;;;4.20;99.90;;;;;;4970587;28;20402;-82
2022/01/27 03:11:50;;;;;;;40.35;29.98;;;4.30;99.90;;;;;;5039361;28;20413;-81
2022/01/27 03:14:22;;;;;;;43.00;31.00;;;4.30;99.90;;;;;;5039368;28;20386;-81
2022/01/27 03:16:58;;;;;;;40.88;30.10;;;4.30;99.90;;;;;;5039817;28;20402;-80
2022/01/27 03:19:24;;;;;;;38.75;29.70;;;4.30;99.90;;;;;;4972103;28;20513;-82
2022/01/27 03:21:50;;;;;;;36.83;27.47;;;4.30;99.90;;;;;;4971253;28;20447;-81
2022/01/27 03:24:17;;;;;;;40.28;30.20;;;4.50;99.90;;;;;;5039244;28;20718;-80
2022/01/27 03:26:43;;;;;;;37.63;28.77;;;4.40;99.90;;;;;;5040137;28;20498;-81
2022/01/27 03:29:08;;;;;;;39.80;30.13;;;4.50;99.90;;;;;;4972787;28;20398;-81
2022/01/27 03:31:34;;;;;;;38.70;28.87;;;4.40;99.90;;;;;;4971789;28;20410;-82
2022/01/27 03:34:00;;;;;;;38.03;29.57;;;4.40;99.90;;;;;;4971971;28;20897;-81
2022/01/27 03:36:25;;;;;;;36.67;28.55;;;4.50;99.90;;;;;;4971597;28;20405;-82
2022/01/27 03:38:51;;;;;;;37.28;28.35;;;4.50;99.90;;;;;;4971523;28;20970;-81
2022/01/27 03:41:20;;;;;;;35.47;27.33;;;4.40;99.90;;;;;;5038862;28;20422;-81
2022/01/27 03:43:47;;;;;;;37.88;28.58;;;4.40;99.90;;;;;;4970644;28;20391;-83
2022/01/27 03:46:14;;;;;;;36.70;27.47;;;4.50;99.90;;;;;;4970902;28;20453;-81
2022/01/27 03:48:39;;;;;;;39.10;29.08;;;4.40;99.90;;;;;;4972053;28;20394;-82
2022/01/27 03:51:05;;;;;;;37.30;28.63;;;4.50;99.90;;;;;;4970898;28;20410;-81
2022/01/27 03:53:31;;;;;;;34.90;27.33;;;4.50;99.90;;;;;;5038888;28;20422;-81
2022/01/27 03:55:57;;;;;;;37.43;28.27;;;4.50;99.90;;;;;;4977568;28;20387;-80
2022/01/27 03:58:23;;;;;;;39.00;29.10;;;4.50;99.90;;;;;;4975967;28;20394;-80
2022/01/27 04:00:49;;;;;;;37.57;28.40;;;4.50;99.90;;;;;;5041631;28;20391;-81
2022/01/27 04:03:17;;;;;;;35.60;27.30;;;4.50;99.90;;;;;;4975575;28;20421;-81
2022/01/27 04:05:50;;;;;;;32.90;27.40;;;4.50;99.90;;;;;;5041761;28;20411;-81
2022/01/27 04:08:16;;;;;;;34.10;26.63;;;4.60;99.90;;;;;;4968926;28;20448;-81
2022/01/27 04:10:42;;;;;;;31.65;24.23;;;4.50;99.90;;;;;;4973520;28;20375;-80
2022/01/27 04:13:09;;;;;;;29.13;23.42;;;4.60;99.90;;;;;;4974080;28;20904;-80
2022/01/27 04:15:36;;;;;;;28.30;22.73;;;4.60;99.90;;;;;;4973585;28;20403;-81
2022/01/27 04:18:03;;;;;;;25.70;21.65;;;4.60;99.90;;;;;;4973205;28;20395;-81
2022/01/27 04:20:29;;;;;;;26.33;21.60;;;4.70;99.90;;;;;;5038523;28;20446;-81
2022/01/27 04:22:55;;;;;;;25.43;20.20;;;4.70;99.90;;;;;;4973689;28;20975;-82
2022/01/27 04:25:20;;;;;;;23.67;19.43;;;4.70;99.90;;;;;;5039295;28;20479;-80
2022/01/27 04:27:51;;;;;;;24.50;19.25;;;4.70;99.90;;;;;;4973680;28;20379;-80
2022/01/27 04:30:19;;;;;;;23.17;18.73;;;4.80;99.90;;;;;;4972742;28;20548;-82
2022/01/27 04:32:50;;;;;;;20.88;17.77;;;4.80;99.90;;;;;;4974357;28;20497;-80
2022/01/27 04:35:19;;;;;;;22.50;17.73;;;4.80;99.90;;;;;;4972322;28;20411;-80
2022/01/27 04:37:58;;;;;;;21.27;17.73;;;4.80;99.90;;;;;;4973354;28;20383;-81
2022/01/27 04:40:37;;;;;;;22.35;18.10;;;4.80;99.90;;;;;;4975645;28;20398;-81
2022/01/27 04:43:16;;;;;;;20.08;16.80;;;4.80;99.90;;;;;;4971290;28;20394;-82
2022/01/27 04:46:07;;;;;;;18.73;16.55;;;4.80;99.90;;;;;;5039801;28;20398;-81
2022/01/27 04:48:41;;;;;;;18.63;16.48;;;4.90;99.90;;;;;;4969994;28;20398;-81
2022/01/27 04:51:10;;;;;;;20.77;16.60;;;4.90;99.90;;;;;;4972416;28;20900;-81
2022/01/27 04:54:23;;;;;;;19.48;16.70;;;4.90;99.90;;;;;;4971847;28;20444;-81
2022/01/27 04:56:27;;;;;;;17.47;15.57;;;4.90;99.90;;;;;;4979053;28;20402;-80
2022/01/27 04:58:57;;;;;;;19.27;16.52;;;4.80;99.90;;;;;;5037521;28;20403;-80
2022/01/27 05:01:30;;;;;;;18.60;15.88;;;4.80;99.90;;;;;;4970513;28;20452;-81
2022/01/27 05:04:03;;;;;;;18.38;15.18;;;4.90;99.90;;;;;;4970868;28;20398;-82
2022/01/27 05:06:30;;;;;;;18.50;16.00;;;4.80;99.90;;;;;;4971553;28;20888;-81
2022/01/27 05:08:56;;;;;;;18.57;15.77;;;4.90;99.90;;;;;;4970165;28;20382;-81
2022/01/27 05:11:29;;;;;;;17.55;15.25;;;4.80;99.90;;;;;;4970956;28;20394;-82
2022/01/27 05:14:18;;;;;;;18.20;15.23;;;4.80;99.90;;;;;;5036848;28;20423;-81
2022/01/27 05:16:44;;;;;;;16.85;14.65;;;4.80;99.90;;;;;;4971462;28;20538;-81
2022/01/27 05:19:09;;;;;;;16.40;14.67;;;4.90;99.90;;;;;;4970930;28;20814;-81
2022/01/27 05:21:35;;;;;;;16.75;14.90;;;4.80;99.90;;;;;;4970163;28;21027;-80
2022/01/27 05:24:02;;;;;;;16.65;13.95;;;4.80;99.90;;;;;;4970210;28;20703;-81
2022/01/27 05:26:28;;;;;;;17.40;15.48;;;4.80;99.90;;;;;;4971298;28;20403;-81
2022/01/27 05:28:54;;;;;;;16.85;15.05;;;4.80;99.90;;;;;;4971469;28;20383;-81
2022/01/27 05:31:20;;;;;;;17.85;15.30;;;4.70;99.90;;;;;;4971338;28;20512;-81
2022/01/27 05:33:45;;;;;;;18.47;16.47;;;4.70;99.90;;;;;;4970578;28;20394;-81
2022/01/27 05:36:11;;;;;;;18.65;15.98;;;4.80;99.90;;;;;;5036494;28;21012;-81
2022/01/27 05:38:37;;;;;;;18.35;15.60;;;4.70;99.90;;;;;;5036620;28;20395;-81
2022/01/27 05:41:04;;;;;;;20.88;17.88;;;4.70;99.90;;;;;;4970431;28;20390;-81
2022/01/27 05:43:30;;;;;;;22.52;19.17;;;4.70;99.90;;;;;;4970349;28;20552;-81
2022/01/27 05:45:55;;;;;;;22.40;19.15;;;4.80;99.90;;;;;;5037063;28;20478;-81
2022/01/27 05:48:21;;;;;;;22.20;19.80;;;4.70;99.90;;;;;;4971016;28;20391;-83
2022/01/27 05:50:47;;;;;;;23.70;20.60;;;4.70;99.90;;;;;;4970365;28;20386;-81
2022/01/27 05:53:13;;;;;;;24.15;20.77;;;4.70;99.90;;;;;;4969618;28;20460;-81
2022/01/27 05:55:38;;;;;;;24.73;21.20;;;4.80;99.90;;;;;;4971125;28;20907;-80
2022/01/27 05:58:04;;;;;;;31.10;25.23;;;4.70;99.90;;;;;;4970905;28;20402;-80
2022/01/27 06:00:30;;;;;;;35.00;27.43;;;4.60;99.90;;;;;;4959741;28;20817;-81
2022/01/27 06:02:55;;;;;;;37.60;28.60;;;4.60;99.90;;;;;;4954316;29;20385;-80
2022/01/27 06:05:21;;;;;;;36.08;30.50;;;4.50;99.90;;;;;;4952173;29;20412;-80
2022/01/27 06:07:47;;;;;;;37.33;30.73;;;4.50;99.90;;;;;;4950205;28;20980;-80
2022/01/27 06:10:13;;;;;;;36.05;28.70;;;4.50;99.90;;;;;;4952190;29;20385;-80
2022/01/27 06:12:52;;;;;;;32.63;26.50;;;4.50;99.90;;;;;;4962071;28;20399;-79
2022/01/27 06:15:19;;;;;;;32.47;26.83;;;4.60;99.90;;;;;;4973080;28;20379;-80
2022/01/27 06:17:45;;;;;;;32.00;26.88;;;4.60;99.90;;;;;;4973548;28;20460;-80
2022/01/27 06:20:11;;;;;;;33.50;27.40;;;4.60;99.90;;;;;;5035566;28;20423;-80
2022/01/27 06:22:37;;;;;;;36.75;29.35;;;4.60;99.90;;;;;;4959813;28;20873;-79
2022/01/27 06:25:03;;;;;;;38.03;31.40;;;4.60;99.90;;;;;;5038628;28;20407;-80
2022/01/27 06:27:29;;;;;;;37.67;30.75;;;4.60;99.90;;;;;;4972039;28;20399;-80
2022/01/27 06:29:54;;;;;;;40.38;32.58;;;4.60;99.90;;;;;;5038692;28;20896;-80
2022/01/27 06:32:20;;;;;;;38.83;31.95;;;4.50;99.90;;;;;;4973643;28;20521;-80
2022/01/27 06:34:46;;;;;;;41.03;33.03;;;4.50;99.90;;;;;;4972416;28;20849;-79
2022/01/27 06:37:12;;;;;;;42.13;33.67;;;4.60;99.90;;;;;;5039176;28;20402;-79
2022/01/27 06:39:38;;;;;;;43.33;36.38;;;4.60;99.90;;;;;;5039280;28;20375;-81
2022/01/27 06:42:05;;;;;;;43.83;35.38;;;4.60;99.90;;;;;;5038080;28;20916;-80
2022/01/27 06:44:30;;;;;;;45.25;36.88;;;4.60;99.90;;;;;;4972805;28;20387;-79
2022/01/27 06:46:56;;;;;;;44.15;36.00;;;4.60;99.90;;;;;;4972527;28;20500;-81
2022/01/27 06:49:22;;;;;;;45.83;37.33;;;4.60;99.90;;;;;;5038618;28;20395;-80
2022/01/27 06:51:47;;;;;;;46.33;37.43;;;4.70;99.90;;;;;;4971824;28;20468;-80
2022/01/27 06:54:15;;;;;;;47.45;38.75;;;4.70;99.90;;;;;;4970231;28;20799;-80
2022/01/27 06:56:41;;;;;;;46.88;38.78;;;4.60;99.90;;;;;;4971522;28;20383;-80
2022/01/27 06:59:06;;;;;;;47.88;38.28;;;4.60;99.90;;;;;;5037174;28;20413;-80
2022/01/27 07:01:32;;;;;;;46.37;37.40;;;4.60;99.90;;;;;;4970487;28;20947;-81
2022/01/27 07:03:57;;;;;;;49.60;38.47;;;4.60;99.90;;;;;;4968527;28;20379;-82
2022/01/27 07:06:35;;;;;;;47.83;39.03;;;4.70;99.90;;;;;;4969319;28;20395;-82
2022/01/27 07:09:21;;;;;;;48.65;38.10;;;4.70;99.90;;;;;;5036427;28;20403;-86
2022/01/27 07:11:47;;;;;;;48.78;39.50;;;4.70;99.90;;;;;;5037776;28;20418;-82
2022/01/27 07:14:12;;;;;;;47.07;39.07;;;4.70;99.90;;;;;;5038709;28;20916;-82
2022/01/27 07:16:38;;;;;;;50.80;39.47;;;4.80;99.90;;;;;;4970255;28;20383;-81
2022/01/27 07:19:04;;;;;;;52.10;40.43;;;4.70;99.90;;;;;;4969268;28;20375;-82
2022/01/27 07:21:30;;;;;;;50.70;39.53;;;4.70;99.90;;;;;;4968883;28;20383;-81
2022/01/27 07:23:55;;;;;;;46.60;38.57;;;4.70;99.90;;;;;;5032171;28;20744;-80
2022/01/27 07:26:25;;;;;;;49.10;39.37;;;4.60;99.90;;;;;;5015122;28;20878;-82
2022/01/27 07:28:52;;;;;;;49.17;39.53;;;4.60;99.90;;;;;;5018214;28;20403;-81
2022/01/27 07:31:18;;;;;;;50.88;40.58;;;4.60;99.90;;;;;;4952356;28;20381;-81
2022/01/27 07:33:44;;;;;;;49.33;40.60;;;4.60;99.90;;;;;;4952174;28;20380;-80
2022/01/27 07:36:09;;;;;;;51.30;41.03;;;4.60;99.90;;;;;;4952394;29;20870;-80
2022/01/27 07:38:35;;;;;;;51.88;41.90;;;4.60;99.90;;;;;;4952731;28;20905;-81
2022/01/27 07:41:01;;;;;;;49.65;41.00;;;4.60;99.90;;;;;;5019370;28;20479;-80
2022/01/27 07:43:27;;;;;;;49.90;41.15;;;4.70;99.90;;;;;;4954112;28;20472;-83
2022/01/27 07:45:52;;;;;;;50.13;41.22;;;4.60;99.90;;;;;;4955383;28;20377;-80
2022/01/27 07:48:18;;;;;;;48.73;39.43;;;4.60;99.90;;;;;;5021344;28;20950;-81
2022/01/27 07:50:44;;;;;;;49.70;40.37;;;4.60;99.90;;;;;;4953608;28;20870;-81
2022/01/27 07:53:10;;;;;;;48.67;39.58;;;4.60;99.90;;;;;;4951846;28;20771;-81
2022/01/27 07:55:37;;;;;;;51.60;41.03;;;4.70;99.90;;;;;;5020300;28;20402;-81
2022/01/27 07:58:04;;;;;;;48.25;39.38;;;4.70;99.90;;;;;;4960725;28;20863;-82
2022/01/27 08:00:30;;;;;;;49.63;39.08;;;4.70;99.90;;;;;;4961215;28;20468;-82
2022/01/27 08:03:03;;;;;;;49.40;40.05;;;4.70;99.90;;;;;;4960653;28;20384;-79
2022/01/27 08:05:28;;;;;;;52.00;41.53;;;4.60;99.90;;;;;;4961548;28;20837;-81
2022/01/27 08:07:55;;;;;;;53.65;41.70;;;4.60;99.90;;;;;;5027808;28;20411;-81
2022/01/27 08:10:21;;;;;;;49.97;41.40;;;4.60;99.90;;;;;;4960231;28;20422;-83
2022/01/27 08:12:47;;;;;;;53.03;42.85;;;4.60;99.90;;;;;;4961309;28;20932;-81
2022/01/27 08:15:14;;;;;;;49.37;40.47;;;4.60;99.90;;;;;;5029304;28;20391;-82
2022/01/27 08:17:41;;;;;;;53.88;41.08;;;4.60;99.90;;;;;;5027080;28;20403;-81
2022/01/27 08:20:07;;;;;;;53.00;41.27;;;4.60;99.90;;;;;;5027505;28;20470;-81
2022/01/27 08:22:37;;;;;;;51.33;39.88;;;4.50;99.90;;;;;;4962691;28;20407;-83
2022/01/27 08:25:03;;;;;;;52.75;41.72;;;4.50;99.90;;;;;;5028221;28;20471;-81
2022/01/27 08:27:31;;;;;;;55.88;43.20;;;4.50;99.90;;;;;;4969705;28;20873;-82
2022/01/27 08:30:02;;;;;;;54.42;43.63;;;4.50;99.90;;;;;;4969283;28;20478;-82
2022/01/27 08:32:32;;;;;;;59.40;44.30;;;4.50;99.90;;;;;;5037036;28;20834;-81
2022/01/27 08:34:58;;;;;;;53.97;41.92;;;4.40;99.90;;;;;;4970252;28;20845;-81
2022/01/27 08:37:23;;;;;;;53.80;41.63;;;4.40;99.90;;;;;;4969105;28;20567;-82
2022/01/27 08:39:49;;;;;;;55.60;43.13;;;4.50;99.90;;;;;;4970487;28;20919;-81
2022/01/27 08:42:18;;;;;;;51.67;41.00;;;4.40;99.90;;;;;;5037072;28;20403;-82
2022/01/27 08:44:45;;;;;;;51.53;39.47;;;4.50;99.90;;;;;;4971156;28;20865;-81
2022/01/27 08:47:11;;;;;;;51.33;39.55;;;4.50;99.90;;;;;;4971130;28;20402;-81
2022/01/27 08:49:37;;;;;;;51.25;40.13;;;4.50;99.90;;;;;;5037814;28;20406;-83
2022/01/27 08:52:03;;;;;;;51.33;37.78;;;4.50;99.90;;;;;;4970480;28;20411;-81
2022/01/27 08:54:29;;;;;;;49.88;37.83;;;4.40;99.90;;;;;;5037900;28;20406;-83
2022/01/27 08:56:54;;;;;;;49.97;37.42;;;4.50;99.90;;;;;;5038091;28;20402;-81
2022/01/27 08:59:23;;;;;;;48.87;37.97;;;4.40;99.90;;;;;;5037807;28;20406;-82
2022/01/27 09:01:49;;;;;;;46.33;36.42;;;4.40;99.90;;;;;;4971107;28;20587;-81
2022/01/27 09:04:15;;;;;;;47.90;37.50;;;4.50;99.90;;;;;;4971255;28;20395;-82
2022/01/27 09:06:40;;;;;;;49.83;37.97;;;4.40;99.90;;;;;;4971276;28;20393;-81
2022/01/27 09:09:07;;;;;;;51.00;38.42;;;4.40;99.90;;;;;;5038892;28;20414;-82
2022/01/27 09:11:33;;;;;;;49.17;37.05;;;4.40;99.90;;;;;;4970943;28;20411;-84
2022/01/27 09:14:01;;;;;;;45.20;34.80;;;4.40;99.90;;;;;;4970315;28;20599;-81
2022/01/27 09:16:28;;;;;;;46.20;34.88;;;4.60;99.90;;;;;;4971149;28;20462;-83
2022/01/27 09:18:57;;;;;;;44.50;34.60;;;4.50;99.90;;;;;;5038368;28;20399;-80
2022/01/27 09:21:26;;;;;;;45.77;35.60;;;4.50;99.90;;;;;;5038549;28;20405;-82
2022/01/27 09:23:53;;;;;;;47.53;36.35;;;4.50;99.90;;;;;;4971142;28;20411;-81
2022/01/27 09:26:43;;;;;;;50.83;37.08;;;4.50;99.90;;;;;;5040282;28;20588;-81
2022/01/27 09:29:10;;;;;;;48.20;35.25;;;4.40;99.90;;;;;;4972116;28;20398;-81
2022/01/27 09:31:36;;;;;;;48.83;37.28;;;4.40;99.90;;;;;;4971679;28;20441;-83
2022/01/27 09:34:02;;;;;;;49.45;36.85;;;4.30;99.90;;;;;;4970808;28;20744;-82
2022/01/27 09:36:27;;;;;;;53.00;38.38;;;4.30;99.90;;;;;;4971858;28;20872;-83
2022/01/27 09:38:53;;;;;;;52.40;38.67;;;4.40;99.90;;;;;;4971357;28;20537;-82
2022/01/27 09:41:20;;;;;;;52.80;39.00;;;4.40;99.90;;;;;;4970856;28;20386;-82
2022/01/27 09:43:54;;;;;;;56.63;39.30;;;4.30;99.90;;;;;;5038800;28;20397;-81
2022/01/27 09:46:21;;;;;;;57.38;39.45;;;4.30;99.90;;;;;;5037152;28;20391;-82
2022/01/27 09:48:54;;;;;;;58.78;41.45;;;4.20;99.90;;;;;;4951573;29;20401;-82
2022/01/27 09:53:54;;;;;;;64.10;43.90;;;4.20;99.90;;;;;;4956110;28;20411;-80
2022/01/27 09:56:20;;;;;;;69.78;45.80;;;4.20;99.90;;;;;;5037351;28;20398;-82
2022/01/27 09:58:46;;;;;;;68.43;44.53;;;4.10;99.90;;;;;;4970314;28;20398;-81
2022/01/27 10:01:12;;;;;;;62.37;44.07;;;4.10;99.90;;;;;;4971403;28;20401;-80
2022/01/27 10:04:02;;;;;;;74.33;46.17;;;4.10;99.90;;;;;;4972547;28;20460;-81
2022/01/27 10:06:31;;;;;;;76.25;45.45;;;4.10;99.90;;;;;;4953603;29;20377;-81
2022/01/27 10:09:18;;;;;;;74.30;46.42;;;4.10;99.90;;;;;;5033768;28;20831;-81
2022/01/27 10:11:47;;;;;;;74.33;47.07;;;4.10;99.90;;;;;;5037505;28;20441;-80
2022/01/27 10:14:35;;;;;;;71.55;45.97;;;4.10;99.90;;;;;;4970245;28;20409;-80
2022/01/27 10:17:03;;;;;;;73.75;47.22;;;4.10;99.90;;;;;;5038105;28;20413;-81
2022/01/27 10:19:30;;;;;;;72.70;46.03;;;4.00;99.90;;;;;;4971401;28;20398;-80
2022/01/27 10:22:01;;;;;;;70.22;45.30;;;4.00;99.90;;;;;;4970774;28;20448;-81
2022/01/27 10:24:30;;;;;;;69.70;45.85;;;4.10;99.90;;;;;;5033521;28;20473;-82
2022/01/27 10:27:24;;;;;;;67.47;44.70;;;4.10;99.90;;;;;;5019128;28;20398;-82
2022/01/27 10:32:48;;;;;;;61.80;41.08;;;4.10;99.90;;;;;;4969304;28;20422;-83
2022/01/27 10:35:19;;;;;;;54.37;39.67;;;4.10;99.90;;;;;;4969703;28;20386;-81
2022/01/27 10:38:01;;;;;;;55.65;39.72;;;4.20;99.90;;;;;;4969934;28;20406;-82
2022/01/27 10:40:37;;;;;;;57.13;39.13;;;4.20;99.90;;;;;;4969815;28;20423;-82
2022/01/27 10:43:13;;;;;;;55.83;38.45;;;4.20;99.90;;;;;;5035560;28;20923;-81
2022/01/27 10:46:04;;;;;;;56.10;38.75;;;4.30;99.90;;;;;;5036989;28;20407;-82
2022/01/27 10:48:32;;;;;;;54.05;37.92;;;4.40;99.90;;;;;;4972250;28;20410;-83
2022/01/27 10:51:04;;;;;;;54.72;37.55;;;4.40;99.90;;;;;;4969818;28;20398;-83
2022/01/27 10:53:50;;;;;;;55.03;38.58;;;4.40;99.90;;;;;;5038209;28;20422;-80
2022/01/27 10:56:22;;;;;;;56.25;39.13;;;4.40;99.90;;;;;;5037432;28;20395;-80
2022/01/27 10:58:47;;;;;;;59.95;39.72;;;4.40;99.90;;;;;;4970125;28;20390;-81
2022/01/27 11:01:29;;;;;;;62.38;40.20;;;4.30;99.90;;;;;;4971398;28;20405;-80
2022/01/27 11:03:57;;;;;;;62.38;41.25;;;4.40;99.90;;;;;;5046889;28;20387;-80
2022/01/27 11:06:25;;;;;;;66.20;41.72;;;4.40;99.90;;;;;;4977143;28;20428;-82
2022/01/27 11:08:54;;;;;;;65.43;41.40;;;4.50;99.90;;;;;;4976160;28;20394;-81
2022/01/27 11:11:23;;;;;;;64.45;41.15;;;4.50;99.90;;;;;;5041906;28;20896;-81
2022/01/27 11:13:49;;;;;;;66.20;42.35;;;4.50;99.90;;;;;;5041693;28;20490;-82
2022/01/27 11:16:18;;;;;;;69.93;42.75;;;4.40;99.90;;;;;;4974414;28;20390;-82
2022/01/27 11:18:46;;;;;;;71.30;43.92;;;4.50;99.90;;;;;;5055366;28;20388;-82
2022/01/27 11:21:23;;;;;;;72.53;44.65;;;4.50;99.90;;;;;;5032770;28;20382;-81
2022/01/27 11:24:03;;;;;;;68.47;42.40;;;4.50;99.90;;;;;;5040791;28;20394;-82
2022/01/27 11:26:30;;;;;;;72.10;44.40;;;4.40;99.90;;;;;;4975926;28;20798;-81
2022/01/27 11:28:57;;;;;;;71.30;43.13;;;4.30;99.90;;;;;;5042438;28;20509;-81
2022/01/27 11:31:26;;;;;;;71.32;42.97;;;4.40;99.90;;;;;;5042890;28;20386;-83
2022/01/27 11:34:06;;;;;;;66.63;41.33;;;4.40;99.90;;;;;;4998236;28;20502;-81
2022/01/27 11:36:33;;;;;;;70.72;41.55;;;4.40;99.90;;;;;;5074476;28;20469;-82
2022/01/27 11:39:00;;;;;;;66.07;40.63;;;4.40;99.90;;;;;;5074936;28;20441;-81
2022/01/27 11:41:43;;;;;;;64.75;40.72;;;4.50;99.90;;;;;;5029195;28;20396;-83
2022/01/27 11:44:29;;;;;;;66.88;40.58;;;4.50;99.90;;;;;;4974173;28;20395;-82
2022/01/27 11:47:10;;;;;;;59.97;39.15;;;4.50;99.90;;;;;;4974378;28;20449;-82
2022/01/27 11:49:57;;;;;;;63.27;38.63;;;4.50;99.90;;;;;;4973842;28;20436;-83
2022/01/27 11:52:45;;;;;;;61.58;38.72;;;4.50;99.90;;;;;;5040926;28;20426;-81
2022/01/27 11:55:46;;;;;;;58.20;37.72;;;4.60;99.90;;;;;;4974426;28;20552;-81
2022/01/27 11:58:14;;;;;;;57.80;36.70;;;4.60;99.90;;;;;;4954390;29;20399;-81
2022/01/27 12:00:40;;;;;;;55.58;35.17;;;4.70;99.90;;;;;;4956262;28;20380;-81
2022/01/27 12:03:13;;;;;;;49.83;34.88;;;4.70;99.90;;;;;;5022646;28;20400;-82
2022/01/27 12:05:41;;;;;;;50.78;33.65;;;4.80;99.90;;;;;;4956152;28;20801;-81
2022/01/27 12:08:13;;;;;;;47.08;33.50;;;4.80;99.90;;;;;;5017790;28;20396;-81
2022/01/27 12:10:50;;;;;;;45.53;31.50;;;4.90;99.90;;;;;;5056089;28;20401;-82
2022/01/27 12:13:37;;;;;;;46.22;31.08;;;5.00;99.90;;;;;;5056234;28;20981;-81
2022/01/27 12:16:39;;;;;;;42.40;29.80;;;5.00;99.90;;;;;;5073895;28;20382;-82
2022/01/27 12:19:12;;;;;;;39.67;27.85;;;5.00;99.90;;;;;;5038487;28;20414;-81
2022/01/27 12:21:40;;;;;;;40.30;28.42;;;5.00;99.90;;;;;;5038892;28;20418;-81
2022/01/27 12:26:49;;;;;;;33.08;25.10;;;5.20;99.90;;;;;;4974142;28;20387;-82
2022/01/27 12:29:33;;;;;;;28.90;22.52;;;5.20;99.90;;;;;;4974668;28;20498;-83
2022/01/27 12:32:06;;;;;;;28.02;21.92;;;5.20;99.90;;;;;;4974942;28;20472;-81
2022/01/27 12:34:33;;;;;;;23.15;19.52;;;5.40;99.90;;;;;;4974039;28;20887;-82
2022/01/27 12:37:08;;;;;;;25.88;19.95;;;5.40;99.90;;;;;;4974777;28;20387;-83
2022/01/27 12:39:40;;;;;;;21.20;17.47;;;5.40;99.90;;;;;;5041578;28;20476;-82
2022/01/27 12:42:12;;;;;;;20.95;17.25;;;5.50;99.90;;;;;;4973263;28;20362;-81
2022/01/27 12:45:02;;;;;;;19.77;16.63;;;5.50;99.90;;;;;;4973012;28;20401;-83
2022/01/27 12:47:30;;;;;;;17.40;15.02;;;5.60;99.90;;;;;;4973887;28;20749;-82
2022/01/27 12:50:09;;;;;;;16.20;13.68;;;5.60;99.90;;;;;;4973419;28;20402;-83
2022/01/27 12:52:40;;;;;;;16.55;13.48;;;5.60;99.90;;;;;;5041505;28;20965;-83
2022/01/27 12:55:09;;;;;;;13.57;12.10;;;5.70;99.90;;;;;;4972573;28;20407;-81
2022/01/27 12:57:35;;;;;;;13.30;11.87;;;5.80;99.90;;;;;;5038334;28;20383;-81
2022/01/27 13:00:03;;;;;;;12.87;11.30;;;5.80;99.90;;;;;;4974001;28;20413;-82
2022/01/27 13:02:29;;;;;;;12.27;10.65;;;5.80;99.90;;;;;;4971748;28;20391;-83
2022/01/27 13:04:57;;;;;;;13.30;11.00;;;6.00;99.90;;;;;;5041142;28;20401;-83
2022/01/27 13:07:25;;;;;;;11.63;10.43;;;6.00;99.90;;;;;;4973654;28;20485;-82
2022/01/27 13:10:13;;;;;;;11.70;9.88;;;6.00;99.90;;;;;;4972270;28;20466;-83
2022/01/27 13:12:49;;;;;;;13.02;9.55;;;6.10;99.90;;;;;;4972153;28;20768;-83
2022/01/27 13:15:21;;;;;;;10.25;9.25;;;6.20;99.90;;;;;;5039493;28;20399;-79
2022/01/27 13:18:04;;;;;;;12.50;9.98;;;6.20;99.90;;;;;;5036603;28;20450;-83
2022/01/27 13:20:43;;;;;;;11.52;8.70;;;6.20;99.90;;;;;;4950760;29;20921;-80
2022/01/27 13:25:49;;;;;;;10.40;9.30;;;6.20;99.90;;;;;;4954000;28;20400;-83
2022/01/27 13:28:20;;;;;;;10.82;8.88;;;6.30;99.90;;;;;;4955082;28;20510;-81
2022/01/27 13:30:50;;;;;;;12.88;9.80;;;6.30;99.90;;;;;;4952894;29;20771;-81
2022/01/27 13:33:17;;;;;;;11.38;9.95;;;6.30;99.90;;;;;;4949626;28;20412;-81
2022/01/27 13:35:43;;;;;;;12.70;9.93;;;6.20;99.90;;;;;;4952491;28;20408;-81